Terminal Aerodrome Forecast
Issued by NWS

Home | Current Version | Previous Version | Text Only | Print | Product List | Glossary On
Versions: 1 2 3 4 5 6 7 8 9 10 11 12 13 14 15
000
FTUS43 KTOP 051233 AAA
TAFFOE
TAF AMD
KFOE 051233Z 0513/0612 14003KT 5SM -RA BR VCTS SCT007 BKN035CB
      TEMPO 0513/0515 BKN006
     FM051700 11009KT P6SM VCTS BKN050CB
     FM060100 07005KT P6SM SCT250
     FM060900 08002KT 5SM BR SKC=

USA.gov is the U.S. government's official web portal to all federal, state and local government web resources and services.